createdAt,value
2017-09-02T00:00:27.567Z,0.00
2017-09-02T00:01:28.010Z,0.00
2017-09-02T00:02:28.442Z,0.00
2017-09-02T00:03:28.871Z,0.00
2017-09-02T00:04:29.305Z,0.00
2017-09-02T00:05:29.744Z,0.00
2017-09-02T00:06:30.172Z,0.00
2017-09-02T00:07:30.623Z,0.00
2017-09-02T00:08:31.041Z,0.00
2017-09-02T00:09:31.478Z,0.00
2017-09-02T00:10:31.908Z,0.00
2017-09-02T00:11:32.351Z,0.00
2017-09-02T00:12:32.776Z,0.00
2017-09-02T00:13:33.203Z,0.00
2017-09-02T00:14:33.645Z,0.00
2017-09-02T00:15:34.078Z,0.00
2017-09-02T00:16:34.511Z,0.00
2017-09-02T00:17:34.952Z,0.00
2017-09-02T00:18:35.373Z,0.00
2017-09-02T00:19:35.814Z,0.00
2017-09-02T00:20:36.243Z,0.00
2017-09-02T00:21:36.675Z,0.00
2017-09-02T00:22:37.113Z,0.00
2017-09-02T00:23:37.549Z,0.00
2017-09-02T00:24:37.975Z,0.00
2017-09-02T00:25:38.407Z,0.00
2017-09-02T00:26:38.845Z,0.00
2017-09-02T00:27:39.274Z,0.00
2017-09-02T00:28:39.712Z,0.00
2017-09-02T00:29:40.162Z,0.00
2017-09-02T00:30:40.575Z,0.00
2017-09-02T00:31:41.005Z,0.00
2017-09-02T00:32:41.440Z,0.00
2017-09-02T00:33:41.886Z,0.00
2017-09-02T00:34:42.309Z,0.00
2017-09-02T00:35:42.755Z,0.00
2017-09-02T00:36:43.177Z,0.00
2017-09-02T00:37:43.606Z,0.00
2017-09-02T00:38:44.061Z,0.00
2017-09-02T00:39:44.477Z,0.00
2017-09-02T00:40:44.908Z,0.00
2017-09-02T00:41:45.340Z,0.00
2017-09-02T00:42:45.773Z,0.00
2017-09-02T00:43:46.209Z,0.00
2017-09-02T00:44:46.647Z,0.00
2017-09-02T00:45:47.081Z,0.00
2017-09-02T00:46:47.511Z,0.00
2017-09-02T00:47:47.939Z,0.00
2017-09-02T00:48:48.378Z,0.00
2017-09-02T00:49:48.805Z,0.00
2017-09-02T00:50:49.271Z,0.00
2017-09-02T00:51:49.675Z,0.00
2017-09-02T00:52:50.109Z,0.00
2017-09-02T00:53:50.544Z,0.00
2017-09-02T00:54:50.987Z,0.00
2017-09-02T00:55:51.412Z,0.00
2017-09-02T00:56:51.835Z,0.00
2017-09-02T00:57:52.277Z,0.00
2017-09-02T00:58:52.707Z,0.00
2017-09-02T00:59:53.133Z,0.00
2017-09-02T01:00:53.579Z,0.00
2017-09-02T01:01:54.009Z,0.00
2017-09-02T01:02:54.442Z,0.00
2017-09-02T01:03:54.877Z,0.00
2017-09-02T01:04:55.312Z,0.00
2017-09-02T01:05:55.734Z,0.00
2017-09-02T01:06:56.166Z,0.00
2017-09-02T01:07:56.601Z,0.00
2017-09-02T01:08:57.034Z,0.00
2017-09-02T01:09:57.469Z,0.00
2017-09-02T01:10:57.903Z,0.00
2017-09-02T01:11:58.336Z,0.00
2017-09-02T01:12:58.764Z,0.00
2017-09-02T01:13:59.206Z,0.00
2017-09-02T01:14:59.631Z,0.00
2017-09-02T01:16:00.066Z,0.00
2017-09-02T01:17:00.496Z,0.00
2017-09-02T01:18:00.928Z,0.00
2017-09-02T01:19:01.363Z,0.00
2017-09-02T01:20:01.830Z,0.00
2017-09-02T01:21:02.227Z,0.00
2017-09-02T01:22:02.659Z,0.00
2017-09-02T01:23:03.113Z,0.00
2017-09-02T01:24:03.534Z,0.00
2017-09-02T01:25:03.959Z,0.00
2017-09-02T01:26:04.391Z,0.00
2017-09-02T01:27:04.828Z,0.00
2017-09-02T01:28:05.261Z,0.00
2017-09-02T01:29:05.692Z,0.00
2017-09-02T01:30:06.120Z,0.00
2017-09-02T01:31:06.558Z,0.00
2017-09-02T01:32:06.984Z,0.00
2017-09-02T01:33:07.421Z,0.00
2017-09-02T01:34:07.854Z,0.00
2017-09-02T01:35:08.291Z,0.00
2017-09-02T01:36:08.729Z,0.00
2017-09-02T01:37:09.151Z,0.00
2017-09-02T01:38:09.579Z,0.00
2017-09-02T01:39:10.011Z,0.00
2017-09-02T01:40:10.446Z,0.00
2017-09-02T01:41:10.881Z,0.00
2017-09-02T01:42:11.315Z,0.00
2017-09-02T01:43:11.753Z,0.00
2017-09-02T01:44:12.178Z,0.00
2017-09-02T01:45:12.662Z,0.00
2017-09-02T01:46:13.047Z,0.00
2017-09-02T01:47:13.478Z,0.00
2017-09-02T01:48:13.904Z,0.00
2017-09-02T01:49:14.340Z,0.00
2017-09-02T01:50:14.778Z,0.00
2017-09-02T01:51:15.202Z,0.00
2017-09-02T01:52:15.638Z,0.00
2017-09-02T01:53:16.080Z,0.00
2017-09-02T01:54:16.510Z,0.00
2017-09-02T01:55:16.937Z,0.00
2017-09-02T01:56:17.368Z,0.00
2017-09-02T01:57:17.800Z,0.00
2017-09-02T01:58:18.243Z,0.00
2017-09-02T01:59:18.674Z,0.00
2017-09-02T02:00:19.098Z,0.00
2017-09-02T02:01:19.530Z,0.00
2017-09-02T02:02:19.961Z,0.00
2017-09-02T02:03:20.394Z,0.00
2017-09-02T02:04:20.824Z,0.00
2017-09-02T02:05:21.259Z,0.00
2017-09-02T02:06:21.687Z,0.00
2017-09-02T02:07:22.124Z,0.00
2017-09-02T02:08:22.552Z,0.00
2017-09-02T02:09:22.990Z,0.00
2017-09-02T02:10:23.420Z,0.00
2017-09-02T02:11:23.850Z,0.00
2017-09-02T02:12:24.312Z,0.00
2017-09-02T02:13:24.723Z,0.00
2017-09-02T02:14:25.141Z,0.00
2017-09-02T02:15:25.585Z,0.00
2017-09-02T02:16:26.013Z,0.00
2017-09-02T02:17:26.438Z,0.00
2017-09-02T02:18:26.883Z,0.00
2017-09-02T02:21:37.173Z,0.00
2017-09-02T02:22:00.872Z,0.00
2017-09-02T02:23:55.418Z,0.00
2017-09-02T02:24:55.850Z,0.00
2017-09-02T02:25:56.279Z,0.00
2017-09-02T02:26:56.711Z,0.00
2017-09-02T02:27:57.158Z,0.00
2017-09-02T02:28:57.573Z,0.00
2017-09-02T02:29:58.021Z,0.00
2017-09-02T02:30:58.438Z,0.00
2017-09-02T02:31:58.867Z,0.00
2017-09-02T02:32:59.300Z,0.00
2017-09-02T02:33:59.730Z,0.00
2017-09-02T02:35:00.175Z,0.00
2017-09-02T02:36:00.595Z,0.00
2017-09-02T02:37:01.043Z,0.00
2017-09-02T02:38:01.458Z,0.00
2017-09-02T02:39:01.894Z,0.00
2017-09-02T02:40:02.327Z,0.00
2017-09-02T02:41:02.768Z,0.00
2017-09-02T02:42:03.216Z,0.00
2017-09-02T02:43:03.619Z,0.00
2017-09-02T02:44:04.049Z,0.00
2017-09-02T02:45:04.492Z,0.00
2017-09-02T02:46:04.928Z,0.00
2017-09-02T02:47:05.352Z,0.00
2017-09-02T02:48:05.772Z,0.00
2017-09-02T02:49:06.209Z,0.00
2017-09-02T02:50:06.646Z,0.00
2017-09-02T02:51:07.073Z,0.00
2017-09-02T02:52:07.508Z,0.00
2017-09-02T02:53:07.940Z,0.00
2017-09-02T02:54:08.369Z,0.00
2017-09-02T02:55:08.799Z,0.00
2017-09-02T02:56:09.227Z,0.00
2017-09-02T02:57:09.672Z,0.00
2017-09-02T02:58:10.095Z,0.00
2017-09-02T02:59:10.531Z,0.00
2017-09-02T03:00:10.955Z,0.00
2017-09-02T03:01:11.399Z,0.00
2017-09-02T03:02:11.823Z,0.00
2017-09-02T03:03:12.267Z,0.00
2017-09-02T03:04:12.685Z,0.00
2017-09-02T03:05:13.115Z,0.00
2017-09-02T03:06:13.551Z,0.00
2017-09-02T03:07:13.982Z,0.00
2017-09-02T03:08:14.413Z,0.00
2017-09-02T03:09:14.841Z,0.00
2017-09-02T03:10:15.286Z,0.00
2017-09-02T03:11:15.705Z,0.00
2017-09-02T03:12:16.140Z,0.00
2017-09-02T03:13:16.573Z,0.00
2017-09-02T03:14:17.001Z,0.00
2017-09-02T03:15:17.440Z,0.00
2017-09-02T03:16:17.859Z,0.00
2017-09-02T03:17:18.301Z,0.00
2017-09-02T03:18:18.732Z,0.00
2017-09-02T03:19:19.158Z,0.00
2017-09-02T03:20:19.594Z,0.00
2017-09-02T03:21:20.019Z,0.00
2017-09-02T03:22:20.452Z,0.00
2017-09-02T03:23:20.885Z,0.00
2017-09-02T03:24:21.322Z,0.00
2017-09-02T03:25:21.749Z,0.00
2017-09-02T03:26:22.178Z,0.00
2017-09-02T03:27:22.615Z,0.00
2017-09-02T03:28:23.043Z,0.00
2017-09-02T03:29:23.466Z,0.00
2017-09-02T03:30:23.904Z,0.00
2017-09-02T03:31:24.339Z,0.00
2017-09-02T03:32:24.770Z,0.00
2017-09-02T03:33:25.199Z,0.00
2017-09-02T03:34:25.629Z,0.00
2017-09-02T03:35:26.062Z,0.00
2017-09-02T03:36:26.490Z,0.00
2017-09-02T03:37:26.922Z,0.00
2017-09-02T03:38:27.350Z,0.00
2017-09-02T03:39:27.804Z,0.00
2017-09-02T03:40:28.218Z,0.00
2017-09-02T03:41:28.646Z,0.00
2017-09-02T03:42:29.106Z,0.00
2017-09-02T03:43:29.516Z,0.00
2017-09-02T03:44:29.939Z,0.00
2017-09-02T03:45:30.369Z,0.00
2017-09-02T03:46:30.814Z,0.00
2017-09-02T03:47:31.239Z,0.00
2017-09-02T03:48:31.665Z,0.00
2017-09-02T03:49:32.104Z,0.00
2017-09-02T03:50:32.531Z,0.00
2017-09-02T03:51:32.960Z,0.00
2017-09-02T03:52:33.391Z,0.00
2017-09-02T03:53:33.835Z,0.00
2017-09-02T03:54:34.274Z,0.00
2017-09-02T03:55:34.687Z,0.00
2017-09-02T03:56:35.112Z,0.00
2017-09-02T03:57:35.548Z,0.00
2017-09-02T03:58:35.977Z,0.00
2017-09-02T03:59:36.412Z,0.00
2017-09-02T04:00:36.839Z,0.00
2017-09-02T04:01:37.274Z,0.00
2017-09-02T04:02:37.707Z,0.00
2017-09-02T04:03:38.132Z,0.00
2017-09-02T04:04:38.561Z,0.00
2017-09-02T04:05:38.994Z,0.00
2017-09-02T04:06:39.423Z,0.00
2017-09-02T04:07:39.874Z,0.00
2017-09-02T04:08:40.286Z,0.00
2017-09-02T04:09:40.715Z,0.00
2017-09-02T04:10:41.155Z,0.00
2017-09-02T04:11:41.576Z,0.00
2017-09-02T04:12:42.009Z,0.00
2017-09-02T04:13:42.443Z,0.00
2017-09-02T04:14:42.874Z,0.00
2017-09-02T04:15:43.299Z,0.00
2017-09-02T04:16:43.730Z,5.63
2017-09-02T04:17:44.160Z,5.63
2017-09-02T04:18:44.595Z,5.63
2017-09-02T04:19:45.030Z,5.63
2017-09-02T04:20:45.457Z,5.63
2017-09-02T04:21:45.893Z,5.63
2017-09-02T04:22:46.315Z,5.63
2017-09-02T04:23:46.746Z,11.25
2017-09-02T04:24:47.178Z,11.25
2017-09-02T04:25:47.610Z,11.25
2017-09-02T04:26:48.042Z,11.25
2017-09-02T04:27:48.466Z,11.25
2017-09-02T04:28:48.900Z,11.25
2017-09-02T04:29:49.335Z,16.88
2017-09-02T04:30:49.785Z,16.88
2017-09-02T04:31:50.197Z,16.88
2017-09-02T04:32:50.626Z,16.88
2017-09-02T04:33:51.054Z,16.88
2017-09-02T04:34:51.484Z,22.50
2017-09-02T04:35:51.915Z,22.50
2017-09-02T04:36:52.348Z,22.50
2017-09-02T04:37:52.777Z,22.50
2017-09-02T04:38:53.208Z,28.13
2017-09-02T04:39:53.641Z,28.13
2017-09-02T04:40:54.123Z,28.13
2017-09-02T04:41:54.499Z,33.75
2017-09-02T04:42:54.932Z,33.75
2017-09-02T04:43:55.358Z,33.75
2017-09-02T04:44:55.786Z,39.38
2017-09-02T04:45:56.218Z,39.38
2017-09-02T04:46:56.655Z,39.38
2017-09-02T04:47:57.079Z,45.00
2017-09-02T04:48:57.512Z,45.00
2017-09-02T04:49:57.947Z,45.00
2017-09-02T04:50:58.373Z,50.63
2017-09-02T04:51:58.801Z,50.63
2017-09-02T04:52:59.237Z,56.25
2017-09-02T04:53:59.667Z,56.25
2017-09-02T04:55:00.104Z,61.88
2017-09-02T04:56:00.520Z,61.88
2017-09-02T04:57:00.954Z,61.88
2017-09-02T04:58:01.384Z,67.50
2017-09-02T04:59:01.865Z,67.50
2017-09-02T05:00:02.253Z,73.13
2017-09-02T05:01:02.680Z,73.13
2017-09-02T05:02:03.115Z,78.75
2017-09-02T05:03:03.544Z,78.75
2017-09-02T05:04:03.978Z,84.38
2017-09-02T05:05:04.404Z,84.38
2017-09-02T05:06:04.840Z,90.00
2017-09-02T05:07:05.278Z,90.00
2017-09-02T05:08:05.699Z,90.00
2017-09-02T05:09:06.130Z,95.63
2017-09-02T05:10:06.560Z,95.63
2017-09-02T05:11:07.001Z,95.63
2017-09-02T05:12:07.423Z,95.63
2017-09-02T05:13:07.859Z,101.25
2017-09-02T05:14:08.289Z,101.25
2017-09-02T05:15:08.726Z,101.25
2017-09-02T05:16:09.150Z,101.25
2017-09-02T05:17:09.577Z,101.25
2017-09-02T05:18:10.012Z,101.25
2017-09-02T05:19:10.442Z,101.25
2017-09-02T05:20:10.876Z,101.25
2017-09-02T05:21:11.305Z,101.25
2017-09-02T05:22:11.735Z,101.25
2017-09-02T05:23:12.169Z,101.25
2017-09-02T05:24:12.598Z,106.88
2017-09-02T05:25:13.030Z,106.88
2017-09-02T05:26:13.461Z,106.88
2017-09-02T05:27:13.923Z,106.88
2017-09-02T05:28:14.324Z,112.50
2017-09-02T05:29:14.752Z,112.50
2017-09-02T05:30:15.193Z,112.50
2017-09-02T05:31:15.624Z,112.50
2017-09-02T05:32:16.056Z,118.13
2017-09-02T05:33:16.484Z,118.13
2017-09-02T05:34:16.946Z,118.13
2017-09-02T05:35:17.345Z,123.75
2017-09-02T05:36:17.775Z,123.75
2017-09-02T05:37:18.205Z,123.75
2017-09-02T05:38:18.658Z,129.38
2017-09-02T05:39:19.072Z,129.38
2017-09-02T05:40:19.504Z,129.38
2017-09-02T05:41:19.937Z,129.38
2017-09-02T05:42:20.370Z,135.00
2017-09-02T05:43:20.803Z,135.00
2017-09-02T05:44:21.232Z,135.00
2017-09-02T05:45:21.659Z,140.63
2017-09-02T05:46:22.090Z,140.63
2017-09-02T05:47:22.523Z,140.63
2017-09-02T05:48:22.961Z,146.25
2017-09-02T05:49:23.390Z,146.25
2017-09-02T05:50:23.820Z,146.25
2017-09-02T05:51:24.248Z,146.25
2017-09-02T05:52:24.685Z,151.88
2017-09-02T05:53:25.113Z,151.88
2017-09-02T05:54:25.551Z,151.88
2017-09-02T05:55:25.978Z,157.50
2017-09-02T05:56:26.410Z,157.50
2017-09-02T05:57:26.840Z,157.50
2017-09-02T05:58:27.279Z,163.13
2017-09-02T05:59:27.712Z,163.13
2017-09-02T06:00:28.135Z,163.13
2017-09-02T06:01:28.588Z,163.13
2017-09-02T06:02:29.001Z,168.75
2017-09-02T06:03:29.435Z,168.75
2017-09-02T06:04:29.871Z,168.75
2017-09-02T06:05:30.296Z,174.38
2017-09-02T06:06:30.736Z,174.38
2017-09-02T06:07:31.158Z,174.38
2017-09-02T06:08:31.597Z,174.38
2017-09-02T06:09:32.025Z,180.00
2017-09-02T06:10:32.461Z,180.00
2017-09-02T06:11:32.892Z,180.00
2017-09-02T06:12:33.325Z,185.63
2017-09-02T06:13:33.772Z,185.63
2017-09-02T06:14:34.187Z,191.25
2017-09-02T06:15:34.630Z,191.25
2017-09-02T06:16:35.061Z,191.25
2017-09-02T06:17:35.489Z,196.88
2017-09-02T06:18:35.919Z,196.88
2017-09-02T06:19:36.354Z,196.88
2017-09-02T06:20:36.786Z,196.88
2017-09-02T06:21:37.301Z,196.88
2017-09-02T06:22:37.652Z,202.50
2017-09-02T06:23:38.081Z,202.50
2017-09-02T06:24:38.520Z,202.50
2017-09-02T06:25:38.961Z,202.50
2017-09-02T06:26:39.382Z,208.13
2017-09-02T06:27:39.816Z,208.13
2017-09-02T06:28:40.249Z,208.13
2017-09-02T06:29:40.680Z,213.75
2017-09-02T06:30:41.115Z,213.75
2017-09-02T06:31:41.545Z,219.38
2017-09-02T06:32:42.009Z,219.38
2017-09-02T06:33:42.413Z,219.38
2017-09-02T06:34:42.857Z,225.00
2017-09-02T06:35:43.284Z,225.00
2017-09-02T06:36:43.714Z,225.00
2017-09-02T06:37:44.152Z,230.63
2017-09-02T06:38:44.612Z,230.63
2017-09-02T06:39:45.017Z,236.25
2017-09-02T06:40:45.456Z,236.25
2017-09-02T06:41:45.886Z,241.88
2017-09-02T06:42:46.318Z,241.88
2017-09-02T06:43:46.755Z,253.13
2017-09-02T06:44:47.186Z,247.50
2017-09-02T06:45:47.621Z,253.13
2017-09-02T06:46:48.050Z,253.13
2017-09-02T06:47:48.485Z,258.75
2017-09-02T06:48:48.917Z,264.38
2017-09-02T06:49:49.353Z,270.00
2017-09-02T06:50:49.786Z,270.00
2017-09-02T06:51:50.224Z,275.63
2017-09-02T06:52:50.653Z,275.63
2017-09-02T06:53:51.093Z,275.63
2017-09-02T06:54:51.523Z,275.63
2017-09-02T06:55:51.959Z,275.63
2017-09-02T06:56:52.395Z,275.63
2017-09-02T06:57:52.826Z,281.25
2017-09-02T06:58:53.266Z,281.25
2017-09-02T06:59:53.703Z,281.25
2017-09-02T07:00:54.135Z,292.50
2017-09-02T07:01:54.571Z,286.88
2017-09-02T07:02:54.997Z,270.00
2017-09-02T07:03:55.440Z,286.88
2017-09-02T07:04:55.870Z,298.13
2017-09-02T07:05:56.304Z,298.13
2017-09-02T07:06:56.737Z,298.13
2017-09-02T07:07:57.174Z,298.13
2017-09-02T07:08:57.610Z,298.13
2017-09-02T07:09:58.040Z,303.75
2017-09-02T07:10:58.477Z,303.75
2017-09-02T07:11:58.918Z,303.75
2017-09-02T07:12:59.349Z,303.75
2017-09-02T07:13:59.866Z,303.75
2017-09-02T07:15:00.217Z,309.38
2017-09-02T07:16:00.656Z,309.38
2017-09-02T07:17:01.089Z,315.00
2017-09-02T07:18:01.523Z,315.00
2017-09-02T07:19:01.969Z,320.63
2017-09-02T07:20:02.394Z,326.25
2017-09-02T07:21:02.837Z,331.88
2017-09-02T07:22:03.262Z,337.50
2017-09-02T07:23:03.715Z,348.75
2017-09-02T07:24:04.141Z,354.38
2017-09-02T07:25:04.571Z,365.63
2017-09-02T07:26:05.007Z,371.25
2017-09-02T07:27:05.446Z,382.50
2017-09-02T07:28:05.877Z,393.75
2017-09-02T07:29:06.312Z,405.00
2017-09-02T07:30:06.747Z,416.25
2017-09-02T07:31:07.188Z,421.88
2017-09-02T07:32:07.625Z,433.13
2017-09-02T07:33:08.104Z,444.38
2017-09-02T07:34:08.484Z,455.63
2017-09-02T07:35:08.931Z,472.50
2017-09-02T07:36:09.375Z,495.00
2017-09-02T07:37:09.835Z,511.88
2017-09-02T07:38:10.245Z,528.75
2017-09-02T07:39:10.681Z,545.63
2017-09-02T07:40:11.117Z,551.25
2017-09-02T07:41:11.562Z,562.50
2017-09-02T07:42:12.000Z,568.13
2017-09-02T07:43:12.478Z,1046.25
2017-09-02T07:44:12.891Z,2047.50
2017-09-02T07:45:13.309Z,1878.75
2017-09-02T07:46:13.746Z,1327.50
2017-09-02T07:47:14.180Z,1918.13
2017-09-02T07:48:14.630Z,2739.38
2017-09-02T07:49:15.071Z,2694.38
2017-09-02T07:50:15.585Z,2497.50
2017-09-02T07:51:15.965Z,2514.38
2017-09-02T07:52:16.403Z,2576.25
2017-09-02T07:53:16.873Z,2570.63
2017-09-02T07:54:17.287Z,2486.25
2017-09-02T07:55:17.733Z,2340.00
2017-09-02T07:56:18.184Z,2238.75
2017-09-02T07:57:18.632Z,2227.50
2017-09-02T07:58:19.078Z,2323.13
2017-09-02T07:59:19.538Z,2418.75
2017-09-02T08:00:19.978Z,2593.13
2017-09-02T08:01:20.439Z,2655.00
2017-09-02T08:02:20.885Z,2542.50
2017-09-02T08:03:21.341Z,2441.25
2017-09-02T08:04:21.787Z,2536.88
2017-09-02T08:05:22.239Z,2823.75
2017-09-02T08:06:22.697Z,2936.25
2017-09-02T08:07:23.147Z,2570.63
2017-09-02T08:08:23.601Z,2221.88
2017-09-02T08:09:24.061Z,2278.13
2017-09-02T08:10:24.528Z,2593.13
2017-09-02T08:11:24.967Z,2610.00
2017-09-02T08:12:25.421Z,2520.00
2017-09-02T08:13:25.875Z,2463.75
2017-09-02T08:14:26.334Z,2441.25
2017-09-02T08:15:26.790Z,2559.38
2017-09-02T08:16:27.248Z,2649.38
2017-09-02T08:17:27.711Z,2711.25
2017-09-02T08:18:28.171Z,2638.13
2017-09-02T08:19:28.621Z,2604.38
2017-09-02T08:20:29.073Z,2559.38
2017-09-02T08:21:29.541Z,2598.75
2017-09-02T08:22:29.995Z,2773.13
2017-09-02T08:23:30.450Z,2919.38
2017-09-02T08:24:30.910Z,3048.75
2017-09-02T08:25:31.377Z,2986.88
2017-09-02T08:26:31.837Z,2688.75
2017-09-02T08:27:32.324Z,2593.13
2017-09-02T08:28:32.749Z,2677.50
2017-09-02T08:29:33.218Z,3003.75
2017-09-02T08:30:33.747Z,2840.63
2017-09-02T08:31:34.128Z,2345.63
2017-09-02T08:32:34.612Z,2857.50
2017-09-02T08:33:35.057Z,3003.75
2017-09-02T08:34:35.515Z,2998.13
2017-09-02T08:35:35.977Z,2880.00
2017-09-02T08:36:36.443Z,2851.88
2017-09-02T08:37:36.902Z,2851.88
2017-09-02T08:38:37.380Z,2896.88
2017-09-02T08:39:37.830Z,2908.13
2017-09-02T08:40:38.289Z,2913.75
2017-09-02T08:41:38.761Z,3003.75
2017-09-02T08:42:39.220Z,3065.63
2017-09-02T08:43:39.680Z,3200.63
2017-09-02T08:44:40.152Z,3206.25
2017-09-02T08:45:40.608Z,3217.50
2017-09-02T08:46:41.069Z,3195.00
2017-09-02T08:47:41.537Z,3200.63
2017-09-02T08:48:42.000Z,1501.88
2017-09-02T08:51:19.826Z,3408.75
2017-09-02T08:52:20.311Z,2970.00
2017-09-02T08:53:20.771Z,1366.88
2017-09-02T08:54:21.236Z,489.38
2017-09-02T08:55:21.696Z,506.25
2017-09-02T08:56:22.156Z,545.63
2017-09-02T08:57:22.624Z,3189.38
2017-09-02T08:58:23.080Z,669.38
2017-09-02T08:59:23.541Z,3335.63
2017-09-02T09:00:24.005Z,3313.13
2017-09-02T09:01:24.465Z,3358.13
2017-09-02T09:02:24.925Z,3318.75
2017-09-02T09:03:25.393Z,2857.50
2017-09-02T09:04:25.847Z,1226.25
2017-09-02T09:05:26.307Z,2486.25
2017-09-02T09:06:26.780Z,3296.25
2017-09-02T09:07:27.229Z,3183.75
2017-09-02T09:08:27.694Z,3138.75
2017-09-02T09:09:28.159Z,2424.38
2017-09-02T09:10:28.617Z,3256.88
2017-09-02T09:11:29.080Z,3352.50
2017-09-02T09:12:29.555Z,2446.88
2017-09-02T09:13:30.011Z,1153.13
2017-09-02T09:14:30.486Z,2199.38
2017-09-02T09:15:30.935Z,3588.75
2017-09-02T09:16:31.398Z,3622.50
2017-09-02T09:17:31.857Z,3549.38
2017-09-02T09:18:32.322Z,928.13
2017-09-02T09:19:32.785Z,517.50
2017-09-02T09:20:33.250Z,455.63
2017-09-02T09:21:33.749Z,433.13
2017-09-02T09:22:34.174Z,438.75
2017-09-02T09:23:34.643Z,472.50
2017-09-02T09:24:35.100Z,478.13
2017-09-02T09:25:35.555Z,489.38
2017-09-02T09:26:36.015Z,2283.75
2017-09-02T09:27:36.472Z,2975.63
2017-09-02T09:28:36.930Z,3211.88
2017-09-02T09:29:37.386Z,3228.75
2017-09-02T09:30:37.842Z,2970.00
2017-09-02T09:31:38.297Z,2936.25
2017-09-02T09:32:38.765Z,3076.88
2017-09-02T09:33:39.219Z,3054.38
2017-09-02T09:34:39.676Z,2075.63
2017-09-02T09:35:40.155Z,781.88
2017-09-02T09:36:40.602Z,3448.13
2017-09-02T09:37:41.056Z,3459.38
2017-09-02T09:38:41.511Z,3470.63
2017-09-02T09:39:41.976Z,3560.63
2017-09-02T09:40:42.436Z,3673.13
2017-09-02T09:41:42.892Z,3813.75
2017-09-02T09:42:43.377Z,3808.13
2017-09-02T09:43:43.855Z,3718.13
2017-09-02T09:44:44.285Z,3577.50
2017-09-02T09:45:44.753Z,3543.75
2017-09-02T09:46:45.207Z,3476.25
2017-09-02T09:47:45.670Z,3465.00
2017-09-02T09:48:46.141Z,3543.75
2017-09-02T09:49:46.599Z,3532.50
2017-09-02T09:50:47.061Z,3532.50
2017-09-02T09:51:47.538Z,3543.75
2017-09-02T09:52:48.002Z,3650.63
2017-09-02T09:53:48.465Z,3661.88
2017-09-02T09:54:48.919Z,3673.13
2017-09-02T09:55:49.411Z,3605.63
2017-09-02T09:56:49.857Z,3498.75
2017-09-02T09:57:50.333Z,3470.63
2017-09-02T09:58:50.792Z,3481.88
2017-09-02T09:59:51.263Z,3448.13
2017-09-02T10:00:51.723Z,3448.13
2017-09-02T10:01:52.191Z,3476.25
2017-09-02T10:02:52.659Z,3538.13
2017-09-02T10:03:53.123Z,3521.25
2017-09-02T10:04:53.593Z,3391.88
2017-09-02T10:05:54.057Z,3251.25
2017-09-02T10:06:54.524Z,3121.88
2017-09-02T10:07:54.993Z,3043.13
2017-09-02T10:08:55.466Z,3211.88
2017-09-02T10:09:55.929Z,3380.63
2017-09-02T10:10:56.401Z,2756.25
2017-09-02T10:11:56.892Z,2925.00
2017-09-02T10:12:57.332Z,3588.75
2017-09-02T10:13:57.797Z,3645.00
2017-09-02T10:14:58.266Z,3583.13
2017-09-02T10:15:58.737Z,675.00
2017-09-02T10:16:59.239Z,748.13
2017-09-02T10:17:59.690Z,3583.13
2017-09-02T10:19:00.149Z,3369.38
2017-09-02T10:20:00.647Z,2340.00
2017-09-02T10:21:01.081Z,1012.50
2017-09-02T10:22:01.537Z,607.50
2017-09-02T10:23:02.005Z,421.88
2017-09-02T10:24:02.469Z,416.25
2017-09-02T10:25:02.932Z,421.88
2017-09-02T10:26:03.405Z,433.13
2017-09-02T10:27:03.861Z,466.88
2017-09-02T10:28:04.328Z,495.00
2017-09-02T10:29:04.790Z,1485.00
2017-09-02T10:30:05.247Z,2953.13
2017-09-02T10:31:05.722Z,3481.88
2017-09-02T10:32:06.174Z,3667.50
2017-09-02T10:33:06.629Z,3746.25
2017-09-02T10:34:07.092Z,3836.25
2017-09-02T10:35:07.562Z,3757.50
2017-09-02T10:36:08.017Z,3768.75
2017-09-02T10:37:08.479Z,916.88
2017-09-02T10:38:08.941Z,1153.13
2017-09-02T10:39:09.411Z,540.00
2017-09-02T10:40:09.865Z,511.88
2017-09-02T10:41:10.332Z,613.13
2017-09-02T10:42:10.799Z,4021.88
2017-09-02T10:43:11.254Z,573.75
2017-09-02T10:44:11.719Z,528.75
2017-09-02T10:45:12.172Z,523.13
2017-09-02T10:47:45.780Z,3217.50
2017-09-02T10:50:20.374Z,3802.50
2017-09-02T10:51:20.830Z,3864.38
2017-09-02T10:53:16.417Z,3864.38
2017-09-02T10:54:16.875Z,3819.38
2017-09-02T10:56:11.500Z,3735.00
2017-09-02T10:57:11.960Z,3858.75
2017-09-02T10:58:12.427Z,3093.75
2017-09-02T10:59:12.895Z,725.63
2017-09-02T11:00:13.358Z,624.38
2017-09-02T11:01:13.818Z,568.13
2017-09-02T11:02:14.276Z,556.88
2017-09-02T11:03:14.747Z,540.00
2017-09-02T11:04:15.205Z,528.75
2017-09-02T11:05:15.659Z,523.13
2017-09-02T11:06:16.119Z,528.75
2017-09-02T11:07:16.579Z,528.75
2017-09-02T11:08:17.044Z,523.13
2017-09-02T11:09:17.497Z,511.88
2017-09-02T11:10:17.954Z,506.25
2017-09-02T11:11:18.405Z,506.25
2017-09-02T11:12:18.884Z,511.88
2017-09-02T11:13:19.320Z,534.38
2017-09-02T11:14:19.773Z,568.13
2017-09-02T11:15:20.223Z,585.00
2017-09-02T11:16:20.674Z,596.25
2017-09-02T11:17:21.129Z,596.25
2017-09-02T11:18:21.588Z,596.25
2017-09-02T11:19:22.028Z,585.00
2017-09-02T11:20:22.478Z,579.38
2017-09-02T11:21:22.936Z,573.75
2017-09-02T11:22:23.396Z,562.50
2017-09-02T11:23:23.833Z,568.13
2017-09-02T11:24:24.276Z,568.13
2017-09-02T11:25:24.738Z,590.63
2017-09-02T11:26:25.173Z,618.75
2017-09-02T11:27:25.626Z,658.13
2017-09-02T11:28:26.062Z,703.13
2017-09-02T11:29:26.512Z,725.63
2017-09-02T11:30:26.962Z,748.13
2017-09-02T11:31:27.408Z,765.00
2017-09-02T11:32:27.859Z,776.25
2017-09-02T11:33:28.303Z,753.75
2017-09-02T11:34:28.754Z,714.38
2017-09-02T11:35:29.199Z,708.75
2017-09-02T11:36:29.646Z,714.38
2017-09-02T11:37:30.095Z,720.00
2017-09-02T11:38:30.541Z,748.13
2017-09-02T11:39:31.000Z,781.88
2017-09-02T11:40:52.604Z,804.38
2017-09-02T11:43:06.039Z,781.88
2017-09-02T11:44:06.458Z,753.75
2017-09-02T11:46:01.032Z,708.75
2017-09-02T11:47:01.486Z,708.75
2017-09-02T11:48:56.077Z,708.75
2017-09-02T11:49:56.519Z,691.88
2017-09-02T11:51:51.108Z,641.25
2017-09-02T11:52:51.559Z,613.13
2017-09-02T11:54:47.130Z,607.50
2017-09-02T11:55:47.585Z,635.63
2017-09-02T11:57:42.174Z,686.25
2017-09-02T11:58:42.638Z,736.88
2017-09-02T12:00:37.234Z,810.00
2017-09-02T12:01:37.662Z,815.63
2017-09-02T12:03:32.251Z,781.88
2017-09-02T12:04:32.701Z,765.00
2017-09-02T12:06:27.281Z,753.75
2017-09-02T12:07:27.728Z,765.00
2017-09-02T12:09:23.300Z,731.25
2017-09-02T12:10:23.742Z,691.88
2017-09-02T12:11:24.194Z,652.50
2017-09-02T12:12:24.640Z,630.00
2017-09-02T12:13:25.088Z,613.13
2017-09-02T12:14:25.529Z,607.50
2017-09-02T12:15:25.985Z,607.50
2017-09-02T12:16:26.431Z,630.00
2017-09-02T12:17:26.874Z,669.38
2017-09-02T12:18:27.315Z,680.63
2017-09-02T12:19:27.764Z,680.63
2017-09-02T12:20:28.209Z,675.00
2017-09-02T12:21:28.656Z,669.38
2017-09-02T12:22:29.104Z,680.63
2017-09-02T12:23:29.548Z,691.88
2017-09-02T12:24:29.995Z,697.50
2017-09-02T12:25:30.448Z,691.88
2017-09-02T12:26:30.888Z,675.00
2017-09-02T12:27:31.337Z,663.75
2017-09-02T12:28:31.782Z,646.88
2017-09-02T12:29:32.231Z,630.00
2017-09-02T12:30:32.676Z,618.75
2017-09-02T12:31:33.122Z,618.75
2017-09-02T12:32:33.567Z,624.38
2017-09-02T12:33:48.584Z,630.00
2017-09-02T12:35:10.585Z,630.00
2017-09-02T12:35:37.669Z,630.00
2017-09-02T12:36:35.351Z,624.38
2017-09-02T12:37:35.805Z,624.38
2017-09-02T12:38:36.248Z,635.63
2017-09-02T12:39:36.695Z,624.38
2017-09-02T12:40:37.145Z,618.75
2017-09-02T12:41:37.587Z,601.88
2017-09-02T12:42:38.036Z,585.00
2017-09-02T12:43:38.476Z,573.75
2017-09-02T12:44:38.925Z,573.75
2017-09-02T12:45:39.375Z,568.13
2017-09-02T12:46:39.856Z,556.88
2017-09-02T12:47:40.262Z,540.00
2017-09-02T12:48:40.715Z,534.38
2017-09-02T12:49:41.181Z,534.38
2017-09-02T12:50:41.602Z,534.38
2017-09-02T12:51:42.051Z,534.38
2017-09-02T12:52:42.506Z,534.38
2017-09-02T12:53:42.996Z,534.38
2017-09-02T12:54:43.376Z,528.75
2017-09-02T12:55:43.913Z,523.13
2017-09-02T12:56:44.274Z,523.13
2017-09-02T12:57:44.725Z,523.13
2017-09-02T12:58:46.197Z,523.13
2017-09-02T12:59:45.617Z,523.13
2017-09-02T13:00:46.065Z,517.50
2017-09-02T13:01:46.523Z,517.50
2017-09-02T13:02:47.060Z,511.88
2017-09-02T13:03:47.402Z,506.25
2017-09-02T13:04:47.840Z,506.25
2017-09-02T13:05:48.292Z,500.63